createdAt,value
2023-02-06T00:00:30.595Z,100724.09
2023-02-06T00:03:33.721Z,100718.72
2023-02-06T00:06:35.622Z,100716.81
2023-02-06T00:09:37.290Z,100717.53
2023-02-06T00:12:39.120Z,100719.09
2023-02-06T00:15:40.737Z,100723.44
2023-02-06T00:18:44.022Z,100717.09
2023-02-06T00:21:45.835Z,100722.28
2023-02-06T00:24:47.558Z,100721.25
2023-02-06T00:27:49.189Z,100716.81
2023-02-06T00:30:51.086Z,100719.28
2023-02-06T00:33:54.042Z,100711.28
2023-02-06T00:36:56.199Z,100710.22
2023-02-06T00:39:57.837Z,100712.78
2023-02-06T00:42:59.561Z,100716.22
2023-02-06T00:46:01.248Z,100717.06
2023-02-06T00:49:04.203Z,100724.06
2023-02-06T00:52:05.861Z,100724.84
2023-02-06T00:55:07.803Z,100724.13
2023-02-06T00:58:09.908Z,100725.09
2023-02-06T01:01:11.665Z,100732.28
2023-02-06T01:04:18.431Z,100725.25
2023-02-06T01:07:20.105Z,100734.84
2023-02-06T01:10:21.883Z,100732.97
2023-02-06T01:13:23.515Z,100729.50
2023-02-06T01:16:25.437Z,100726.00
2023-02-06T01:19:29.157Z,100722.50
2023-02-06T01:22:32.789Z,100722.66
2023-02-06T01:25:35.030Z,100735.91
2023-02-06T01:28:37.281Z,100735.16
2023-02-06T01:31:38.890Z,100740.41
2023-02-06T01:34:42.023Z,100744.78
2023-02-06T01:37:43.916Z,100750.16
2023-02-06T01:40:45.642Z,100740.63
2023-02-06T01:43:48.502Z,100744.19
2023-02-06T01:46:52.350Z,100737.19
2023-02-06T01:49:55.529Z,100736.44
2023-02-06T01:52:58.099Z,100736.44
2023-02-06T01:56:01.591Z,100732.03
2023-02-06T01:59:05.441Z,100732.97
2023-02-06T02:02:07.282Z,100730.44
2023-02-06T02:05:12.188Z,100723.41
2023-02-06T02:08:17.290Z,100728.69
2023-02-06T02:11:20.544Z,100724.28
2023-02-06T02:14:22.244Z,100731.22
2023-02-06T02:17:33.644Z,100733.72
2023-02-06T02:20:48.414Z,100724.91
2023-02-06T02:23:54.586Z,100737.06
2023-02-06T02:27:13.462Z,100717.66
2023-02-06T02:30:25.939Z,100709.84
2023-02-06T02:33:37.358Z,100712.53
2023-02-06T02:36:44.181Z,100706.44
2023-02-06T02:39:47.920Z,100704.72
2023-02-06T02:42:54.829Z,100715.25
2023-02-06T02:45:59.237Z,100711.75
2023-02-06T02:49:03.675Z,100716.13
2023-02-06T02:52:06.891Z,100709.91
2023-02-06T02:55:15.929Z,100715.13
2023-02-06T02:58:21.522Z,100717.75
2023-02-06T03:01:27.286Z,100709.00
2023-02-06T03:04:33.362Z,100709.81
2023-02-06T03:07:40.385Z,100712.44
2023-02-06T03:10:47.498Z,100705.41
2023-02-06T03:13:51.848Z,100717.66
2023-02-06T03:16:57.166Z,100703.59
2023-02-06T03:20:00.272Z,100703.47
2023-02-06T03:23:04.562Z,100720.91
2023-02-06T03:26:07.921Z,100706.81
2023-02-06T03:29:11.206Z,100719.00
2023-02-06T03:32:15.599Z,100729.56
2023-02-06T03:35:18.525Z,100734.75
2023-02-06T03:38:24.770Z,100735.63
2023-02-06T03:41:29.246Z,100739.09
2023-02-06T03:44:33.631Z,100737.31
2023-02-06T03:47:36.999Z,100731.16
2023-02-06T03:50:40.901Z,100712.59
2023-02-06T03:53:45.758Z,100710.66
2023-02-06T03:56:50.345Z,100713.28
2023-02-06T03:59:52.041Z,100722.84
2023-02-06T04:02:55.229Z,100724.47
2023-02-06T04:05:56.909Z,100718.97
2023-02-06T04:09:00.059Z,100715.41
2023-02-06T04:12:01.898Z,100714.56
2023-02-06T04:15:04.925Z,100705.78
2023-02-06T04:18:06.591Z,100714.44
2023-02-06T04:21:08.704Z,100711.84
2023-02-06T04:24:12.123Z,100700.44
2023-02-06T04:27:15.102Z,100703.88
2023-02-06T04:30:18.004Z,100694.13
2023-02-06T04:33:19.822Z,100685.28
2023-02-06T04:36:21.507Z,100689.50
2023-02-06T04:39:25.628Z,100686.72
2023-02-06T04:42:27.302Z,100683.94
2023-02-06T04:45:29.136Z,100675.94
2023-02-06T04:48:30.937Z,100677.50
2023-02-06T04:51:32.816Z,100679.97
2023-02-06T04:54:36.187Z,100679.88
2023-02-06T04:57:38.166Z,100680.81
2023-02-06T05:00:40.125Z,100680.94
2023-02-06T05:03:42.140Z,100674.91
2023-02-06T05:06:43.653Z,100681.09
2023-02-06T05:09:46.578Z,100671.31
2023-02-06T05:12:50.831Z,100668.44
2023-02-06T05:15:52.803Z,100678.84
2023-02-06T05:18:55.936Z,100678.78
2023-02-06T05:21:57.656Z,100681.44
2023-02-06T05:25:00.652Z,100675.25
2023-02-06T05:28:02.839Z,100670.06
2023-02-06T05:31:04.917Z,100683.03
2023-02-06T05:34:07.220Z,100680.34
2023-02-06T05:37:09.383Z,100686.38
2023-02-06T05:40:13.001Z,100676.81
2023-02-06T05:43:17.405Z,100684.66
2023-02-06T05:46:19.495Z,100674.09
2023-02-06T05:49:21.481Z,100676.63
2023-02-06T05:52:23.277Z,100689.81
2023-02-06T05:55:26.417Z,100691.63
2023-02-06T05:58:28.681Z,100690.69
2023-02-06T06:01:30.757Z,100704.69
2023-02-06T06:04:32.541Z,100700.47
2023-02-06T06:07:34.465Z,100706.44
2023-02-06T06:10:37.517Z,100706.38
2023-02-06T06:13:39.146Z,100707.13
2023-02-06T06:16:41.934Z,100702.88
2023-02-06T06:19:43.623Z,100707.16
2023-02-06T06:22:45.325Z,100711.63
2023-02-06T06:25:49.183Z,100716.63
2023-02-06T06:28:51.197Z,100726.09
2023-02-06T06:31:53.120Z,100730.44
2023-02-06T06:34:54.965Z,100739.03
2023-02-06T06:37:56.809Z,100727.66
2023-02-06T06:40:59.952Z,100742.38
2023-02-06T06:44:01.768Z,100740.72
2023-02-06T06:47:03.487Z,100738.22
2023-02-06T06:50:05.607Z,100737.22
2023-02-06T06:53:07.476Z,100738.38
2023-02-06T06:56:13.394Z,100734.13
2023-02-06T06:59:15.063Z,100741.50
2023-02-06T07:02:16.921Z,100723.97
2023-02-06T07:05:18.712Z,100732.69
2023-02-06T07:08:20.455Z,100738.94
2023-02-06T07:11:24.325Z,100734.50
2023-02-06T07:14:26.019Z,100731.16
2023-02-06T07:17:27.750Z,100726.84
2023-02-06T07:20:29.402Z,100731.00
2023-02-06T07:23:31.256Z,100740.72
2023-02-06T07:26:34.445Z,100748.44
2023-02-06T07:29:36.234Z,100736.19
2023-02-06T07:32:38.214Z,100740.75
2023-02-06T07:35:41.697Z,100754.78
2023-02-06T07:38:43.308Z,100745.13
2023-02-06T07:41:49.071Z,100740.75
2023-02-06T07:44:50.806Z,100744.22
2023-02-06T07:47:52.484Z,100748.53
2023-02-06T07:50:54.363Z,100750.19
2023-02-06T07:53:56.174Z,100744.38
2023-02-06T07:56:59.156Z,100742.03
2023-02-06T08:00:00.751Z,100750.47
2023-02-06T08:03:03.512Z,100754.91
2023-02-06T08:06:09.314Z,100746.53
2023-02-06T08:09:12.218Z,100741.28
2023-02-06T08:12:23.161Z,100750.91
2023-02-06T08:15:25.384Z,100751.09
2023-02-06T08:18:26.974Z,100740.72
2023-02-06T08:21:28.850Z,100742.41
2023-02-06T08:24:30.534Z,100740.59
2023-02-06T08:27:33.800Z,100737.81
2023-02-06T08:30:37.254Z,100749.09
2023-02-06T08:33:40.688Z,100750.75
2023-02-06T08:36:43.598Z,100746.84
2023-02-06T08:39:46.407Z,100756.75
2023-02-06T08:42:51.367Z,100764.94
2023-02-06T08:45:56.307Z,100756.09
2023-02-06T08:49:05.246Z,100752.66
2023-02-06T08:52:07.028Z,100751.91
2023-02-06T08:55:08.649Z,100759.38
2023-02-06T08:58:11.629Z,100757.38
2023-02-06T09:01:14.496Z,100761.06
2023-02-06T09:04:16.570Z,100759.19
2023-02-06T09:07:18.228Z,100760.16
2023-02-06T09:10:27.557Z,100760.94
2023-02-06T09:13:32.261Z,100761.66
2023-02-06T09:16:34.030Z,100765.09
2023-02-06T09:22:48.854Z,100756.19
2023-02-06T09:25:50.549Z,100749.69
2023-02-06T09:28:53.576Z,100742.28
2023-02-06T09:31:57.431Z,100729.63
2023-02-06T09:34:59.190Z,100732.31
2023-02-06T09:38:00.832Z,100737.91
2023-02-06T09:41:05.790Z,100724.75
2023-02-06T09:44:13.686Z,100726.66
2023-02-06T09:47:20.179Z,100724.81
2023-02-06T09:50:25.675Z,100722.50
2023-02-06T09:53:30.520Z,100720.63
2023-02-06T09:56:36.473Z,100714.44
2023-02-06T09:59:44.970Z,100702.38
2023-02-06T10:02:55.041Z,100699.00
2023-02-06T10:06:02.889Z,100703.31
2023-02-06T10:09:05.990Z,100702.44
2023-02-06T10:12:12.470Z,100694.91
2023-02-06T10:15:17.381Z,100694.97
2023-02-06T10:18:23.896Z,100695.81
2023-02-06T10:21:28.337Z,100692.25
2023-02-06T10:24:33.042Z,100701.00
2023-02-06T10:27:35.458Z,100712.59
2023-02-06T10:30:52.626Z,100709.88
2023-02-06T10:34:01.009Z,100716.00
2023-02-06T10:37:09.288Z,100722.34
2023-02-06T10:40:15.536Z,100717.28
2023-02-06T10:43:23.083Z,100715.78
2023-02-06T10:46:42.926Z,100702.16
2023-02-06T10:49:48.051Z,100707.19
2023-02-06T10:52:51.031Z,100703.31
2023-02-06T10:55:56.301Z,100693.53
2023-02-06T10:59:00.451Z,100692.72
2023-02-06T11:02:16.104Z,100690.31
2023-02-06T11:05:20.973Z,100688.78
2023-02-06T11:08:25.795Z,100686.63
2023-02-06T11:11:29.888Z,100677.00
2023-02-06T11:14:34.262Z,100674.31
2023-02-06T11:17:36.322Z,100670.22
2023-02-06T11:20:41.722Z,100665.84
2023-02-06T11:23:43.487Z,100670.53
2023-02-06T11:26:47.577Z,100666.88
2023-02-06T11:29:52.083Z,100655.50
2023-02-06T11:33:04.384Z,100660.00
2023-02-06T11:36:21.512Z,100648.44
2023-02-06T11:39:30.362Z,100649.84
2023-02-06T11:42:32.443Z,100659.50
2023-02-06T11:45:35.836Z,100657.66
2023-02-06T11:48:38.643Z,100676.03
2023-02-06T11:51:52.157Z,100658.66
2023-02-06T11:54:54.735Z,100657.84
2023-02-06T11:58:05.584Z,100651.78
2023-02-06T12:01:09.594Z,100647.63
2023-02-06T12:04:17.355Z,100644.44
2023-02-06T12:07:24.648Z,100645.50
2023-02-06T12:10:27.232Z,100650.59
2023-02-06T12:13:30.922Z,100634.81
2023-02-06T12:16:34.385Z,100640.13
2023-02-06T12:19:41.780Z,100636.81
2023-02-06T12:22:48.236Z,100643.06
2023-02-06T12:25:53.095Z,100645.72
2023-02-06T12:28:57.697Z,100654.31
2023-02-06T12:32:04.593Z,100657.63
2023-02-06T12:35:14.587Z,100655.94
2023-02-06T12:38:21.871Z,100646.03
2023-02-06T12:44:47.031Z,100649.75
2023-02-06T12:47:51.748Z,100653.44
2023-02-06T12:50:57.835Z,100657.22
2023-02-06T12:54:02.855Z,100650.41
2023-02-06T12:57:05.680Z,100652.25
2023-02-06T13:00:15.167Z,100641.63
2023-02-06T13:03:31.194Z,100638.19
2023-02-06T13:06:39.541Z,100623.31
2023-02-06T13:09:48.774Z,100635.47
2023-02-06T13:12:53.610Z,100642.50
2023-02-06T13:15:56.774Z,100646.00
2023-02-06T13:19:02.116Z,100651.44
2023-02-06T13:22:36.963Z,100654.22
2023-02-06T13:25:49.150Z,100650.94
2023-02-06T13:29:00.460Z,100648.31
2023-02-06T13:32:30.239Z,100644.78
2023-02-06T13:35:31.921Z,100653.59
2023-02-06T13:38:37.668Z,100658.16
2023-02-06T13:41:42.533Z,100658.50
2023-02-06T13:44:44.197Z,100658.97
2023-02-06T13:48:04.676Z,100649.41
2023-02-06T13:51:12.653Z,100647.69
2023-02-06T13:54:33.540Z,100651.09
2023-02-06T13:57:50.622Z,100659.19
2023-02-06T14:00:53.802Z,100644.31
2023-02-06T14:03:56.156Z,100645.13
2023-02-06T14:07:17.897Z,100651.28
2023-02-06T14:10:53.001Z,100644.06
2023-02-06T14:14:07.509Z,100644.06
2023-02-06T14:17:15.675Z,100648.22
2023-02-06T14:20:22.911Z,100649.66
2023-02-06T14:23:30.111Z,100656.50
2023-02-06T14:26:37.197Z,100646.03
2023-02-06T14:29:45.986Z,100646.25
2023-02-06T14:32:54.322Z,100645.69
2023-02-06T14:36:06.044Z,100649.47
2023-02-06T14:39:29.878Z,100658.25
2023-02-06T14:42:33.331Z,100658.63
2023-02-06T14:45:42.186Z,100669.00
2023-02-06T14:48:45.732Z,100662.78
2023-02-06T14:51:49.457Z,100670.69
2023-02-06T14:54:51.584Z,100664.44
2023-02-06T14:57:53.336Z,100662.84
2023-02-06T15:00:57.731Z,100666.47
2023-02-06T15:04:10.170Z,100660.31
2023-02-06T15:07:21.402Z,100660.22
2023-02-06T15:10:27.082Z,100661.94
2023-02-06T15:13:34.955Z,100669.75
2023-02-06T15:16:47.038Z,100670.53
2023-02-06T15:19:48.821Z,100667.78
2023-02-06T15:22:51.089Z,100672.13
2023-02-06T15:26:03.952Z,100672.94
2023-02-06T15:29:11.963Z,100677.22
2023-02-06T15:32:23.271Z,100685.97
2023-02-06T15:35:25.914Z,100692.84
2023-02-06T15:38:29.544Z,100694.44
2023-02-06T15:41:31.703Z,100684.50
2023-02-06T15:44:37.781Z,100690.56
2023-02-06T15:47:42.449Z,100694.75
2023-02-06T15:50:55.103Z,100690.34
2023-02-06T15:54:06.137Z,100695.38
2023-02-06T15:57:18.081Z,100701.34
2023-02-06T16:00:23.740Z,100700.38
2023-02-06T16:03:28.428Z,100686.13
2023-02-06T16:06:30.679Z,100696.50
2023-02-06T16:12:46.609Z,100684.78
2023-02-06T16:16:03.232Z,100690.75
2023-02-06T16:19:34.014Z,100696.69
2023-02-06T16:22:40.501Z,100704.53
2023-02-06T16:25:42.782Z,100704.47
2023-02-06T16:28:52.151Z,100699.03
2023-02-06T16:31:59.085Z,100698.94
2023-02-06T16:35:02.300Z,100701.66
2023-02-06T16:38:04.694Z,100688.38
2023-02-06T16:41:22.689Z,100679.63
2023-02-06T16:44:36.123Z,100673.34
2023-02-06T16:47:44.831Z,100667.91
2023-02-06T16:50:48.428Z,100663.41
2023-02-06T16:53:50.768Z,100674.72
2023-02-06T16:56:53.260Z,100677.13
2023-02-06T16:59:55.629Z,100683.16
2023-02-06T17:02:57.837Z,100677.72
2023-02-06T17:06:01.317Z,100677.69
2023-02-06T17:09:08.935Z,100683.50
2023-02-06T17:12:14.916Z,100691.16
2023-02-06T17:15:18.060Z,100685.72
2023-02-06T17:18:20.540Z,100687.50
2023-02-06T17:21:24.136Z,100700.56
2023-02-06T17:24:26.005Z,100701.41
2023-02-06T17:27:28.075Z,100715.47
2023-02-06T17:30:30.205Z,100708.47
2023-02-06T17:33:32.063Z,100706.53
2023-02-06T17:36:39.658Z,100719.66
2023-02-06T17:39:41.443Z,100709.81
2023-02-06T17:42:43.844Z,100719.34
2023-02-06T17:45:45.905Z,100718.25
2023-02-06T17:48:47.726Z,100722.59
2023-02-06T17:51:51.960Z,100723.44
2023-02-06T17:54:53.768Z,100732.06
2023-02-06T17:57:55.524Z,100728.41
2023-02-06T18:00:57.115Z,100728.22
2023-02-06T18:04:00.835Z,100717.69
2023-02-06T18:07:04.040Z,100712.41
2023-02-06T18:10:07.265Z,100714.00
2023-02-06T18:13:08.929Z,100713.91
2023-02-06T18:16:13.438Z,100704.16
2023-02-06T18:19:16.068Z,100710.25
2023-02-06T18:22:22.640Z,100708.56
2023-02-06T18:25:24.329Z,100698.91
2023-02-06T18:28:25.941Z,100703.03
2023-02-06T18:31:30.148Z,100699.53
2023-02-06T18:34:32.916Z,100705.53
2023-02-06T18:37:36.237Z,100695.00
2023-02-06T18:40:38.696Z,100697.66
2023-02-06T18:43:40.711Z,100694.94
2023-02-06T18:46:42.456Z,100696.66
2023-02-06T18:49:44.238Z,100709.81
2023-02-06T18:56:07.539Z,100719.44
2023-02-06T18:59:09.243Z,100710.78
2023-02-06T19:02:10.934Z,100721.25
2023-02-06T19:05:12.820Z,100723.88
2023-02-06T19:08:14.451Z,100717.66
2023-02-06T19:11:17.644Z,100719.31
2023-02-06T19:14:22.617Z,100721.00
2023-02-06T19:17:25.033Z,100717.44
2023-02-06T19:20:27.153Z,100715.59
2023-02-06T19:23:28.730Z,100713.84
2023-02-06T19:26:31.786Z,100702.47
2023-02-06T19:29:36.132Z,100701.53
2023-02-06T19:32:38.374Z,100697.22
2023-02-06T19:35:40.211Z,100706.78
2023-02-06T19:38:42.334Z,100705.88
2023-02-06T19:41:45.653Z,100713.66
2023-02-06T19:44:51.080Z,100713.59
2023-02-06T19:47:53.180Z,100711.06
2023-02-06T19:50:56.223Z,100718.19
2023-02-06T19:53:59.185Z,100718.13
2023-02-06T19:57:02.732Z,100717.16
2023-02-06T20:00:04.793Z,100721.59
2023-02-06T20:03:06.861Z,100726.63
2023-02-06T20:06:10.705Z,100721.34
2023-02-06T20:09:13.325Z,100724.78
2023-02-06T20:12:18.028Z,100722.91
2023-02-06T20:15:19.902Z,100731.50
2023-02-06T20:18:21.848Z,100725.50
2023-02-06T20:21:29.455Z,100724.69
2023-02-06T20:24:32.816Z,100730.03
2023-02-06T20:27:36.311Z,100723.00
2023-02-06T20:30:38.707Z,100733.50
2023-02-06T20:33:41.123Z,100731.72
2023-02-06T20:36:42.993Z,100736.16
2023-02-06T20:39:45.036Z,100745.72
2023-02-06T20:42:50.519Z,100747.53
2023-02-06T20:45:52.957Z,100737.84
2023-02-06T20:48:56.039Z,100740.47
2023-02-06T20:51:57.900Z,100742.22
2023-02-06T20:54:59.727Z,100736.03
2023-02-06T20:58:03.086Z,100736.03
2023-02-06T21:01:11.647Z,100737.81
2023-02-06T21:04:14.751Z,100748.38
2023-02-06T21:07:19.456Z,100751.00
2023-02-06T21:10:22.610Z,100745.66
2023-02-06T21:13:25.802Z,100743.78
2023-02-06T21:16:28.144Z,100742.03
2023-02-06T21:19:29.898Z,100742.84
2023-02-06T21:22:32.130Z,100745.47
2023-02-06T21:25:35.869Z,100738.34
2023-02-06T21:28:39.613Z,100737.47
2023-02-06T21:31:41.928Z,100741.78
2023-02-06T21:34:43.915Z,100754.75
2023-02-06T21:37:45.758Z,100745.91
2023-02-06T21:40:47.702Z,100738.69
2023-02-06T21:43:51.180Z,100751.59
2023-02-06T21:50:13.366Z,100761.16
2023-02-06T21:53:15.270Z,100763.63
2023-02-06T21:56:17.639Z,100748.66
2023-02-06T21:59:22.232Z,100745.00
2023-02-06T22:02:24.212Z,100751.16
2023-02-06T22:05:27.358Z,100746.66
2023-02-06T22:08:29.369Z,100752.69
2023-02-06T22:11:31.768Z,100750.78
2023-02-06T22:14:35.748Z,100736.56
2023-02-06T22:17:37.836Z,100746.34
2023-02-06T22:20:39.684Z,100750.03
2023-02-06T22:23:42.149Z,100745.69
2023-02-06T22:30:03.337Z,100751.72
2023-02-06T22:33:05.994Z,100758.78
2023-02-06T22:36:09.352Z,100753.53
2023-02-06T22:39:12.866Z,100757.88
2023-02-06T22:42:14.662Z,100775.06
2023-02-06T22:45:17.942Z,100774.75
2023-02-06T22:48:19.767Z,100770.75
2023-02-06T22:54:57.558Z,100790.81
2023-02-06T22:58:00.564Z,100792.41
2023-02-06T23:01:06.364Z,100797.56
2023-02-06T23:04:09.480Z,100788.41
2023-02-06T23:07:11.369Z,100797.06
2023-02-06T23:10:15.799Z,100809.25
2023-02-06T23:13:24.169Z,100819.09
2023-02-06T23:16:31.397Z,100818.25
2023-02-06T23:19:33.301Z,100807.72
2023-02-06T23:22:35.349Z,100811.13
2023-02-06T23:25:42.269Z,100826.09
2023-02-06T23:28:44.186Z,100828.78
2023-02-06T23:31:47.821Z,100820.19
2023-02-06T23:34:49.643Z,100821.69
2023-02-06T23:37:51.592Z,100815.69
2023-02-06T23:40:53.352Z,100815.63
2023-02-06T23:43:57.998Z,100825.38
2023-02-06T23:47:01.147Z,100820.81
2023-02-06T23:50:02.963Z,100815.69
2023-02-06T23:53:05.326Z,100809.50
2023-02-06T23:56:10.090Z,100807.78
2023-02-06T23:59:11.848Z,100805.00
